Time;durP1;ratioP1;P1;durP2;ratioP2;P2;SDS_P1;SDS_P2;PMS_P1;PMS_P2;Temp;Humidity;BMP_temperature;BMP_pressure;BME280_temperature;BME280_humidity;BME280_pressure;Samples;Min_cycle;Max_cycle;Signal;HPM_P1;HPM_P2
2023/11/11 00:02:06;;;;;;;14.6;10.7;;;;;;;8.59;86.73;;;;;
2023/11/11 00:12:07;;;;;;;14.6;10.7;;;;;;;8.62;86.55;;;;;
2023/11/11 00:23:06;;;;;;;15.6;10.2;;;;;;;8.47;87.77;;;;;
2023/11/11 00:34:06;;;;;;;15.6;10.2;;;;;;;8.51;87.45;;;;;
2023/11/11 00:44:08;;;;;;;17.1;11.2;;;;;;;8.59;87.06;;;;;
2023/11/11 00:55:07;;;;;;;17.1;11.2;;;;;;;8.72;86.66;;;;;
2023/11/11 01:06:06;;;;;;;17.1;11.2;;;;;;;8.63;86.41;;;;;
2023/11/11 01:17:06;;;;;;;14.1;8.4;;;;;;;8.55;86.32;;;;;
2023/11/11 01:27:06;;;;;;;14.1;8.4;;;;;;;8.6;86.41;;;;;
2023/11/11 01:37:08;;;;;;;14.1;8.4;;;;;;;8.6;86.38;;;;;
2023/11/11 01:47:06;;;;;;;12.3;6.8;;;;;;;8.6;86.26;;;;;
2023/11/11 01:58:06;;;;;;;12.3;6.8;;;;;;;8.58;85.68;;;;;
2023/11/11 02:08:06;;;;;;;12.3;6.8;;;;;;;8.5;86.44;;;;;
2023/11/11 02:18:06;;;;;;;14.6;9.9;;;;;;;8.26;87.44;;;;;
2023/11/11 02:29:08;;;;;;;14.6;9.9;;;;;;;8.39;86.84;;;;;
2023/11/11 02:39:06;;;;;;;14.6;9.9;;;;;;;8.08;87.35;;;;;
2023/11/11 02:50:06;;;;;;;11.6;7.3;;;;;;;8.13;87.18;;;;;
2023/11/11 03:01:08;;;;;;;11.6;7.3;;;;;;;8.29;86.37;;;;;
2023/11/11 03:12:06;;;;;;;8.2;3.8;;;;;;;8.28;86.51;;;;;
2023/11/11 03:22:06;;;;;;;8.2;3.8;;;;;;;8;87.12;;;;;
2023/11/11 03:33:06;;;;;;;8.2;3.8;;;;;;;8.14;86.89;;;;;
2023/11/11 03:44:08;;;;;;;6.6;2.4;;;;;;;7.97;87.14;;;;;
2023/11/11 03:55:07;;;;;;;6.6;2.4;;;;;;;7.71;87.85;;;;;
2023/11/11 04:06:09;;;;;;;6.6;2.4;;;;;;;7.81;87.35;;;;;
2023/11/11 04:17:07;;;;;;;3.4;1.6;;;;;;;7.71;87.42;;;;;
2023/11/11 04:28:06;;;;;;;3.4;1.6;;;;;;;7.73;87.49;;;;;
2023/11/11 04:39:08;;;;;;;3.4;1.6;;;;;;;7.54;87.99;;;;;
2023/11/11 04:49:07;;;;;;;3.1;1.7;;;;;;;7.63;88.03;;;;;
2023/11/11 05:00:09;;;;;;;3.1;1.7;;;;;;;7.76;87.35;;;;;
2023/11/11 05:10:09;;;;;;;3.1;1.7;;;;;;;7.96;86.84;;;;;
2023/11/11 05:21:09;;;;;;;2.7;1.5;;;;;;;8.17;86.36;;;;;
2023/11/11 05:31:06;;;;;;;2.7;1.5;;;;;;;8.11;86.55;;;;;
2023/11/11 05:42:06;;;;;;;4.3;2.2;;;;;;;8.09;87.3;;;;;
2023/11/11 05:53:06;;;;;;;4.3;2.2;;;;;;;7.74;87.91;;;;;
2023/11/11 06:03:07;;;;;;;4.3;2.2;;;;;;;7.96;87.15;;;;;
2023/11/11 06:13:06;;;;;;;3.6;1.9;;;;;;;7.83;87.74;;;;;
2023/11/11 06:23:06;;;;;;;3.6;1.9;;;;;;;7.95;87.16;;;;;
2023/11/11 06:33:06;;;;;;;3.6;1.9;;;;;;;7.84;87.4;;;;;
2023/11/11 06:44:06;;;;;;;4;1.7;;;;;;;7.92;87.36;;;;;
2023/11/11 06:54:09;;;;;;;4;1.7;;;;;;;8.03;87.22;;;;;
2023/11/11 07:04:07;;;;;;;4;1.7;;;;;;;7.9;87.51;;;;;
2023/11/11 07:15:07;;;;;;;3.6;1.7;;;;;;;8;86.87;;;;;
2023/11/11 07:25:06;;;;;;;3.6;1.7;;;;;;;8.03;87.32;;;;;
2023/11/11 07:35:07;;;;;;;3.6;1.7;;;;;;;8.26;86.86;;;;;
2023/11/11 07:46:06;;;;;;;4.1;1.8;;;;;;;8.34;86.48;;;;;
2023/11/11 07:56:07;;;;;;;4.1;1.8;;;;;;;8.62;86.74;;;;;
2023/11/11 08:07:09;;;;;;;4.1;1.8;;;;;;;8.72;86.31;;;;;
2023/11/11 08:18:06;;;;;;;4.5;2.1;;;;;;;9.02;86.19;;;;;
2023/11/11 08:28:07;;;;;;;4.5;2.1;;;;;;;9.06;84.97;;;;;
2023/11/11 08:38:07;;;;;;;4.5;2.1;;;;;;;9.16;84.8;;;;;
2023/11/11 08:49:07;;;;;;;7.7;3.7;;;;;;;9.37;84.1;;;;;
2023/11/11 08:59:08;;;;;;;7.7;3.7;;;;;;;9.46;84.34;;;;;
2023/11/11 09:09:07;;;;;;;7.7;3.7;;;;;;;9.57;84.24;;;;;
2023/11/11 09:20:07;;;;;;;7.8;4.4;;;;;;;9.65;84.11;;;;;
2023/11/11 09:31:08;;;;;;;7.8;4.4;;;;;;;9.31;84.6;;;;;
2023/11/11 09:41:07;;;;;;;7.8;4.4;;;;;;;9.23;85.19;;;;;
2023/11/11 09:52:06;;;;;;;16.5;9.5;;;;;;;9.1;86.04;;;;;
2023/11/11 10:02:07;;;;;;;16.5;9.5;;;;;;;9.23;86.22;;;;;
2023/11/11 10:13:07;;;;;;;24.7;14;;;;;;;9.25;86.05;;;;;
2023/11/11 10:23:07;;;;;;;24.7;14;;;;;;;9.3;86.62;;;;;
2023/11/11 10:34:07;;;;;;;24.7;14;;;;;;;9.5;85.73;;;;;
2023/11/11 10:45:06;;;;;;;25;16.1;;;;;;;9.72;84.61;;;;;
2023/11/11 10:47:46;;;;;;;25;16.1;;;;;;;9.77;84.94;;;;;
2023/11/11 10:57:47;;;;;;;25;16.1;;;;;;;10.01;84.46;;;;;
2023/11/11 11:07:47;;;;;;;25;16.1;;;;;;;10.05;83.62;;;;;
2023/11/11 11:18:46;;;;;;;29;16.4;;;;;;;9.93;83.35;;;;;
2023/11/11 11:29:47;;;;;;;29;16.4;;;;;;;10.37;82.4;;;;;
2023/11/11 11:39:47;;;;;;;29;16.4;;;;;;;10.2;81.99;;;;;
2023/11/11 11:49:47;;;;;;;26.2;17.2;;;;;;;10.22;82.5;;;;;
2023/11/11 11:59:48;;;;;;;26.2;17.2;;;;;;;10.44;82.49;;;;;
2023/11/11 12:10:47;;;;;;;26.2;17.2;;;;;;;10.13;82.55;;;;;
2023/11/11 12:20:47;;;;;;;27.7;18.1;;;;;;;10.06;83.1;;;;;
2023/11/11 12:31:47;;;;;;;27.7;18.1;;;;;;;10.02;82.46;;;;;
2023/11/11 12:41:47;;;;;;;25.4;15.7;;;;;;;9.85;82.87;;;;;
2023/11/11 12:52:47;;;;;;;25.4;15.7;;;;;;;9.96;82.49;;;;;
2023/11/11 13:03:47;;;;;;;25.4;15.7;;;;;;;9.82;82.79;;;;;
2023/11/11 13:14:49;;;;;;;30.6;18.2;;;;;;;9.8;83.2;;;;;
2023/11/11 13:25:48;;;;;;;30.6;18.2;;;;;;;9.66;83.53;;;;;
2023/11/11 13:35:50;;;;;;;30.6;18.2;;;;;;;9.69;83.69;;;;;
2023/11/11 13:46:47;;;;;;;28.6;17.5;;;;;;;9.86;83.58;;;;;
2023/11/11 13:57:47;;;;;;;28.6;17.5;;;;;;;9.6;83.76;;;;;
2023/11/11 14:07:47;;;;;;;28.6;17.5;;;;;;;9.32;84.79;;;;;
2023/11/11 14:17:47;;;;;;;37.6;24.3;;;;;;;9.15;84.54;;;;;
2023/11/11 14:28:49;;;;;;;37.6;24.3;;;;;;;9.1;85.3;;;;;
2023/11/11 14:38:47;;;;;;;37.6;24.3;;;;;;;9.11;85.58;;;;;
2023/11/11 14:49:47;;;;;;;37.3;22.4;;;;;;;8.87;86.66;;;;;
2023/11/11 14:59:48;;;;;;;37.3;22.4;;;;;;;8.86;86.89;;;;;
2023/11/11 15:09:47;;;;;;;37.3;22.4;;;;;;;8.95;86.77;;;;;
2023/11/11 15:20:47;;;;;;;37.3;21.2;;;;;;;8.85;87.31;;;;;
2023/11/11 15:30:49;;;;;;;37.3;21.2;;;;;;;8.7;87.76;;;;;
2023/11/11 15:41:47;;;;;;;40.3;25;;;;;;;8.6;88.35;;;;;
2023/11/11 15:51:47;;;;;;;40.3;25;;;;;;;8.63;88.44;;;;;
2023/11/11 16:02:47;;;;;;;40.3;25;;;;;;;8.47;89.15;;;;;
2023/11/11 16:12:47;;;;;;;40.2;24.4;;;;;;;8.41;89.25;;;;;
2023/11/11 16:22:50;;;;;;;40.2;24.4;;;;;;;8.31;89.48;;;;;
2023/11/11 16:33:47;;;;;;;40.2;24.4;;;;;;;8.37;89.06;;;;;
2023/11/11 16:44:48;;;;;;;39.1;23.4;;;;;;;8.48;88.91;;;;;
2023/11/11 16:55:47;;;;;;;39.1;23.4;;;;;;;8.42;88.75;;;;;
2023/11/11 17:05:47;;;;;;;39.1;23.4;;;;;;;8.41;89.06;;;;;
2023/11/11 17:16:47;;;;;;;39.5;24.6;;;;;;;8.37;89.42;;;;;
2023/11/11 17:26:47;;;;;;;39.5;24.6;;;;;;;8.4;89.18;;;;;
2023/11/11 17:37:48;;;;;;;39.5;24.6;;;;;;;8.4;89.29;;;;;
2023/11/11 17:47:47;;;;;;;38.5;22;;;;;;;8.52;88.9;;;;;
2023/11/11 17:57:47;;;;;;;38.5;22;;;;;;;8.38;88.37;;;;;
2023/11/11 18:08:47;;;;;;;38.5;22;;;;;;;8.06;87.02;;;;;
2023/11/11 18:18:47;;;;;;;29;16.2;;;;;;;8.09;85.28;;;;;
2023/11/11 18:28:47;;;;;;;29;16.2;;;;;;;7.95;84.93;;;;;
2023/11/11 18:39:48;;;;;;;29;16.2;;;;;;;7.78;85.5;;;;;
2023/11/11 18:49:47;;;;;;;8.4;4.4;;;;;;;7.62;86.51;;;;;
2023/11/11 19:00:47;;;;;;;8.4;4.4;;;;;;;7.63;88.16;;;;;
2023/11/11 19:11:47;;;;;;;16.2;8.9;;;;;;;7.55;87.84;;;;;
2023/11/11 19:21:47;;;;;;;16.2;8.9;;;;;;;7.31;87.16;;;;;
2023/11/11 19:31:47;;;;;;;16.2;8.9;;;;;;;7.07;87.59;;;;;
2023/11/11 19:41:47;;;;;;;9.1;4.7;;;;;;;7.09;87.32;;;;;
2023/11/11 19:52:47;;;;;;;9.1;4.7;;;;;;;7.01;87.5;;;;;
2023/11/11 20:03:47;;;;;;;9.1;4.7;;;;;;;6.97;87.82;;;;;
2023/11/11 20:14:47;;;;;;;6.4;3.6;;;;;;;6.99;87.65;;;;;
2023/11/11 20:25:47;;;;;;;6.4;3.6;;;;;;;7.02;87.92;;;;;
2023/11/11 20:35:49;;;;;;;6.4;3.6;;;;;;;7.04;87.41;;;;;
2023/11/11 20:46:48;;;;;;;10.8;4.7;;;;;;;7.01;87.79;;;;;
2023/11/11 20:57:47;;;;;;;10.8;4.7;;;;;;;7.11;87.93;;;;;
2023/11/11 21:08:49;;;;;;;10.8;4.7;;;;;;;7.12;87.6;;;;;
2023/11/11 21:19:47;;;;;;;9.5;5.6;;;;;;;7.08;87.86;;;;;
2023/11/11 21:29:47;;;;;;;9.5;5.6;;;;;;;7.07;87.76;;;;;
2023/11/11 21:40:47;;;;;;;12.1;6.1;;;;;;;7.1;87.86;;;;;
2023/11/11 21:50:47;;;;;;;12.1;6.1;;;;;;;7.23;87.75;;;;;
2023/11/11 22:00:47;;;;;;;12.1;6.1;;;;;;;7.27;87.78;;;;;
2023/11/11 22:11:47;;;;;;;12.4;6.5;;;;;;;7.28;87.41;;;;;
2023/11/11 22:22:47;;;;;;;12.4;6.5;;;;;;;7.18;87.34;;;;;
2023/11/11 22:32:47;;;;;;;12.4;6.5;;;;;;;7.28;87.22;;;;;
2023/11/11 22:42:47;;;;;;;11.3;6.4;;;;;;;7.23;86.94;;;;;
2023/11/11 22:53:47;;;;;;;11.3;6.4;;;;;;;7.2;87.14;;;;;
2023/11/11 23:03:49;;;;;;;11.3;6.4;;;;;;;7.05;88.25;;;;;
2023/11/11 23:14:47;;;;;;;15.6;8.2;;;;;;;7.07;88.74;;;;;
2023/11/11 23:25:47;;;;;;;15.6;8.2;;;;;;;7.18;88.94;;;;;
2023/11/11 23:36:47;;;;;;;15.6;8.2;;;;;;;7.1;89.82;;;;;
2023/11/11 23:46:47;;;;;;;30;16.5;;;;;;;7.14;89.8;;;;;
2023/11/11 23:57:47;;;;;;;30;16.5;;;;;;;7.07;90.3;;;;;
